sensor_id;sensor_type;location;lat;lon;timestamp;temperature;humidity
20827;DHT22;10574;52.508;13.236;2024-02-16T00:00:13;10.30;99.90
20827;DHT22;10574;52.508;13.236;2024-02-16T00:02:43;10.30;99.90
20827;DHT22;10574;52.508;13.236;2024-02-16T00:05:12;10.20;99.90
20827;DHT22;10574;52.508;13.236;2024-02-16T00:07:42;10.20;99.90
20827;DHT22;10574;52.508;13.236;2024-02-16T00:10:11;10.20;99.90
20827;DHT22;10574;52.508;13.236;2024-02-16T00:12:39;10.20;99.90
20827;DHT22;10574;52.508;13.236;2024-02-16T00:15:07;10.10;99.90
20827;DHT22;10574;52.508;13.236;2024-02-16T00:17:37;10.10;99.90
20827;DHT22;10574;52.508;13.236;2024-02-16T00:20:06;10.10;99.90
20827;DHT22;10574;52.508;13.236;2024-02-16T00:22:34;10.00;99.90
20827;DHT22;10574;52.508;13.236;2024-02-16T00:25:02;10.00;99.90
20827;DHT22;10574;52.508;13.236;2024-02-16T00:27:30;9.90;99.90
20827;DHT22;10574;52.508;13.236;2024-02-16T00:29:58;9.90;99.90
20827;DHT22;10574;52.508;13.236;2024-02-16T00:32:26;9.80;99.90
20827;DHT22;10574;52.508;13.236;2024-02-16T00:34:56;9.80;99.90
20827;DHT22;10574;52.508;13.236;2024-02-16T00:37:24;9.80;99.90
20827;DHT22;10574;52.508;13.236;2024-02-16T00:39:52;9.80;99.90
20827;DHT22;10574;52.508;13.236;2024-02-16T00:42:22;9.80;99.90
20827;DHT22;10574;52.508;13.236;2024-02-16T00:44:50;9.70;99.90
20827;DHT22;10574;52.508;13.236;2024-02-16T00:47:18;9.70;99.90
20827;DHT22;10574;52.508;13.236;2024-02-16T00:49:46;9.60;99.90
20827;DHT22;10574;52.508;13.236;2024-02-16T00:52:14;9.70;99.90
20827;DHT22;10574;52.508;13.236;2024-02-16T00:54:42;9.60;99.90
20827;DHT22;10574;52.508;13.236;2024-02-16T00:57:09;9.70;99.90
20827;DHT22;10574;52.508;13.236;2024-02-16T00:59:37;9.60;99.90
20827;DHT22;10574;52.508;13.236;2024-02-16T01:02:05;9.60;99.90
20827;DHT22;10574;52.508;13.236;2024-02-16T01:04:36;9.50;99.90
20827;DHT22;10574;52.508;13.236;2024-02-16T01:07:04;9.50;99.90
20827;DHT22;10574;52.508;13.236;2024-02-16T01:09:32;9.50;99.90
20827;DHT22;10574;52.508;13.236;2024-02-16T01:12:00;9.50;99.90
20827;DHT22;10574;52.508;13.236;2024-02-16T01:14:28;9.40;99.90
20827;DHT22;10574;52.508;13.236;2024-02-16T01:16:58;9.40;99.90
20827;DHT22;10574;52.508;13.236;2024-02-16T01:19:26;9.40;99.90
20827;DHT22;10574;52.508;13.236;2024-02-16T01:21:54;9.30;99.90
20827;DHT22;10574;52.508;13.236;2024-02-16T01:24:24;9.40;99.90
20827;DHT22;10574;52.508;13.236;2024-02-16T01:26:52;9.40;99.90
20827;DHT22;10574;52.508;13.236;2024-02-16T01:29:20;9.40;99.90
20827;DHT22;10574;52.508;13.236;2024-02-16T01:31:47;9.30;99.90
20827;DHT22;10574;52.508;13.236;2024-02-16T01:34:16;9.30;99.90
20827;DHT22;10574;52.508;13.236;2024-02-16T01:36:43;9.30;99.90
20827;DHT22;10574;52.508;13.236;2024-02-16T01:39:15;9.30;99.90
20827;DHT22;10574;52.508;13.236;2024-02-16T01:41:46;9.30;99.90
20827;DHT22;10574;52.508;13.236;2024-02-16T01:44:15;9.30;99.90
20827;DHT22;10574;52.508;13.236;2024-02-16T01:46:44;9.30;99.90
20827;DHT22;10574;52.508;13.236;2024-02-16T01:49:12;9.30;99.90
20827;DHT22;10574;52.508;13.236;2024-02-16T01:51:42;9.30;99.90
20827;DHT22;10574;52.508;13.236;2024-02-16T01:54:12;9.20;99.90
20827;DHT22;10574;52.508;13.236;2024-02-16T01:56:40;9.30;99.90
20827;DHT22;10574;52.508;13.236;2024-02-16T01:59:09;9.30;99.90
20827;DHT22;10574;52.508;13.236;2024-02-16T02:01:36;9.30;99.90
20827;DHT22;10574;52.508;13.236;2024-02-16T02:04:04;9.20;99.90
20827;DHT22;10574;52.508;13.236;2024-02-16T02:06:36;9.30;99.90
20827;DHT22;10574;52.508;13.236;2024-02-16T02:09:07;9.30;99.90
20827;DHT22;10574;52.508;13.236;2024-02-16T02:11:37;9.30;99.90
20827;DHT22;10574;52.508;13.236;2024-02-16T02:14:04;9.30;99.90
20827;DHT22;10574;52.508;13.236;2024-02-16T02:16:32;9.30;99.90
20827;DHT22;10574;52.508;13.236;2024-02-16T02:19:00;9.30;99.90
20827;DHT22;10574;52.508;13.236;2024-02-16T02:21:31;9.30;99.90
20827;DHT22;10574;52.508;13.236;2024-02-16T02:23:59;9.30;99.90
20827;DHT22;10574;52.508;13.236;2024-02-16T02:26:27;9.30;99.90
20827;DHT22;10574;52.508;13.236;2024-02-16T02:28:55;9.30;99.90
20827;DHT22;10574;52.508;13.236;2024-02-16T02:31:24;9.30;99.90
20827;DHT22;10574;52.508;13.236;2024-02-16T02:33:54;9.30;99.90
20827;DHT22;10574;52.508;13.236;2024-02-16T02:36:22;9.30;99.90
20827;DHT22;10574;52.508;13.236;2024-02-16T02:38:50;9.30;99.90
20827;DHT22;10574;52.508;13.236;2024-02-16T02:41:18;9.40;99.90
20827;DHT22;10574;52.508;13.236;2024-02-16T02:43:46;9.40;99.90
20827;DHT22;10574;52.508;13.236;2024-02-16T02:46:17;9.40;99.90
20827;DHT22;10574;52.508;13.236;2024-02-16T02:48:46;9.40;99.90
20827;DHT22;10574;52.508;13.236;2024-02-16T02:51:14;9.40;99.90
20827;DHT22;10574;52.508;13.236;2024-02-16T02:53:42;9.40;99.90
20827;DHT22;10574;52.508;13.236;2024-02-16T02:56:10;9.40;99.90
20827;DHT22;10574;52.508;13.236;2024-02-16T02:58:39;9.40;99.90
20827;DHT22;10574;52.508;13.236;2024-02-16T03:01:07;9.40;99.90
20827;DHT22;10574;52.508;13.236;2024-02-16T03:03:36;9.40;99.90
20827;DHT22;10574;52.508;13.236;2024-02-16T03:06:06;9.40;99.90
20827;DHT22;10574;52.508;13.236;2024-02-16T03:08:35;9.40;99.90
20827;DHT22;10574;52.508;13.236;2024-02-16T03:11:03;9.40;99.90
20827;DHT22;10574;52.508;13.236;2024-02-16T03:13:32;9.40;99.90
20827;DHT22;10574;52.508;13.236;2024-02-16T03:16:00;9.40;99.90
20827;DHT22;10574;52.508;13.236;2024-02-16T03:18:32;9.40;99.90
20827;DHT22;10574;52.508;13.236;2024-02-16T03:21:03;9.40;99.90
20827;DHT22;10574;52.508;13.236;2024-02-16T03:23:31;9.40;99.90
20827;DHT22;10574;52.508;13.236;2024-02-16T03:25:59;9.30;99.90
20827;DHT22;10574;52.508;13.236;2024-02-16T03:28:27;9.30;99.90
20827;DHT22;10574;52.508;13.236;2024-02-16T03:30:55;9.30;99.90
20827;DHT22;10574;52.508;13.236;2024-02-16T03:33:23;9.30;99.90
20827;DHT22;10574;52.508;13.236;2024-02-16T03:35:53;9.30;99.90
20827;DHT22;10574;52.508;13.236;2024-02-16T03:38:22;9.30;99.90
20827;DHT22;10574;52.508;13.236;2024-02-16T03:40:49;9.30;99.90
20827;DHT22;10574;52.508;13.236;2024-02-16T03:43:17;9.30;99.90
20827;DHT22;10574;52.508;13.236;2024-02-16T03:45:45;9.30;99.90
20827;DHT22;10574;52.508;13.236;2024-02-16T03:48:13;9.20;99.90
20827;DHT22;10574;52.508;13.236;2024-02-16T03:50:41;9.20;99.90
20827;DHT22;10574;52.508;13.236;2024-02-16T03:53:09;9.20;99.90
20827;DHT22;10574;52.508;13.236;2024-02-16T03:55:36;9.20;99.90
20827;DHT22;10574;52.508;13.236;2024-02-16T03:58:05;9.20;99.90
20827;DHT22;10574;52.508;13.236;2024-02-16T04:00:33;9.20;99.90
20827;DHT22;10574;52.508;13.236;2024-02-16T04:03:01;9.10;99.90
20827;DHT22;10574;52.508;13.236;2024-02-16T04:05:29;9.10;99.90
20827;DHT22;10574;52.508;13.236;2024-02-16T04:07:58;9.20;99.90
20827;DHT22;10574;52.508;13.236;2024-02-16T04:10:30;9.20;99.90
20827;DHT22;10574;52.508;13.236;2024-02-16T04:12:58;9.20;99.90
20827;DHT22;10574;52.508;13.236;2024-02-16T04:15:26;9.20;99.90
20827;DHT22;10574;52.508;13.236;2024-02-16T04:17:53;9.20;99.90
20827;DHT22;10574;52.508;13.236;2024-02-16T04:20:21;9.20;99.90
20827;DHT22;10574;52.508;13.236;2024-02-16T04:22:49;9.20;99.90
20827;DHT22;10574;52.508;13.236;2024-02-16T04:25:17;9.20;99.90
20827;DHT22;10574;52.508;13.236;2024-02-16T04:27:48;9.20;99.90
20827;DHT22;10574;52.508;13.236;2024-02-16T04:30:17;9.20;99.90
20827;DHT22;10574;52.508;13.236;2024-02-16T04:32:46;9.30;99.90
20827;DHT22;10574;52.508;13.236;2024-02-16T04:35:15;9.30;99.90
20827;DHT22;10574;52.508;13.236;2024-02-16T04:37:44;9.30;99.90
20827;DHT22;10574;52.508;13.236;2024-02-16T04:40:12;9.30;99.90
20827;DHT22;10574;52.508;13.236;2024-02-16T04:42:40;9.40;99.90
20827;DHT22;10574;52.508;13.236;2024-02-16T04:45:14;9.30;99.90
20827;DHT22;10574;52.508;13.236;2024-02-16T04:47:39;9.30;99.90
20827;DHT22;10574;52.508;13.236;2024-02-16T04:50:07;9.40;99.90
20827;DHT22;10574;52.508;13.236;2024-02-16T04:52:37;9.30;99.90
20827;DHT22;10574;52.508;13.236;2024-02-16T04:55:09;9.30;99.90
20827;DHT22;10574;52.508;13.236;2024-02-16T04:57:38;9.30;99.90
20827;DHT22;10574;52.508;13.236;2024-02-16T05:00:07;9.30;99.90
20827;DHT22;10574;52.508;13.236;2024-02-16T05:02:36;9.30;99.90
20827;DHT22;10574;52.508;13.236;2024-02-16T05:05:04;9.30;99.90
20827;DHT22;10574;52.508;13.236;2024-02-16T05:07:32;9.20;99.90
20827;DHT22;10574;52.508;13.236;2024-02-16T05:10:02;9.20;99.90
20827;DHT22;10574;52.508;13.236;2024-02-16T05:12:30;9.30;99.90
20827;DHT22;10574;52.508;13.236;2024-02-16T05:14:58;9.30;99.90
20827;DHT22;10574;52.508;13.236;2024-02-16T05:17:26;9.30;99.90
20827;DHT22;10574;52.508;13.236;2024-02-16T05:19:54;9.30;99.90
20827;DHT22;10574;52.508;13.236;2024-02-16T05:22:28;9.30;99.90
20827;DHT22;10574;52.508;13.236;2024-02-16T05:24:57;9.30;99.90
20827;DHT22;10574;52.508;13.236;2024-02-16T05:27:27;9.30;99.90
20827;DHT22;10574;52.508;13.236;2024-02-16T05:29:57;9.30;99.90
20827;DHT22;10574;52.508;13.236;2024-02-16T05:32:25;9.20;99.90
20827;DHT22;10574;52.508;13.236;2024-02-16T05:34:53;9.20;99.90
20827;DHT22;10574;52.508;13.236;2024-02-16T05:37:21;9.30;99.90
20827;DHT22;10574;52.508;13.236;2024-02-16T05:39:49;9.30;99.90
20827;DHT22;10574;52.508;13.236;2024-02-16T05:42:24;9.30;99.90
20827;DHT22;10574;52.508;13.236;2024-02-16T05:44:54;9.20;99.90
20827;DHT22;10574;52.508;13.236;2024-02-16T05:47:22;9.30;99.90
20827;DHT22;10574;52.508;13.236;2024-02-16T05:49:50;9.20;99.90
20827;DHT22;10574;52.508;13.236;2024-02-16T05:52:18;9.20;99.90
20827;DHT22;10574;52.508;13.236;2024-02-16T05:54:48;9.20;99.90
20827;DHT22;10574;52.508;13.236;2024-02-16T05:57:16;9.20;99.90
20827;DHT22;10574;52.508;13.236;2024-02-16T05:59:45;9.20;99.90
20827;DHT22;10574;52.508;13.236;2024-02-16T06:02:13;9.20;99.90
20827;DHT22;10574;52.508;13.236;2024-02-16T06:04:40;9.20;99.90
20827;DHT22;10574;52.508;13.236;2024-02-16T06:07:08;9.20;99.90
20827;DHT22;10574;52.508;13.236;2024-02-16T06:09:37;9.20;99.90
20827;DHT22;10574;52.508;13.236;2024-02-16T06:12:06;9.10;99.90
20827;DHT22;10574;52.508;13.236;2024-02-16T06:14:35;9.10;99.90
20827;DHT22;10574;52.508;13.236;2024-02-16T06:17:04;9.10;99.90
20827;DHT22;10574;52.508;13.236;2024-02-16T06:19:32;9.10;99.90
20827;DHT22;10574;52.508;13.236;2024-02-16T06:22:00;9.10;99.90
20827;DHT22;10574;52.508;13.236;2024-02-16T06:24:28;9.10;99.90
20827;DHT22;10574;52.508;13.236;2024-02-16T06:26:56;9.10;99.90
20827;DHT22;10574;52.508;13.236;2024-02-16T06:29:24;9.10;99.90
20827;DHT22;10574;52.508;13.236;2024-02-16T06:31:52;9.10;99.90
20827;DHT22;10574;52.508;13.236;2024-02-16T06:34:21;9.10;99.90
20827;DHT22;10574;52.508;13.236;2024-02-16T06:36:49;9.10;99.90
20827;DHT22;10574;52.508;13.236;2024-02-16T06:39:17;9.00;99.90
20827;DHT22;10574;52.508;13.236;2024-02-16T06:41:46;9.10;99.90
20827;DHT22;10574;52.508;13.236;2024-02-16T06:44:14;9.10;99.90
20827;DHT22;10574;52.508;13.236;2024-02-16T06:46:43;9.10;99.90
20827;DHT22;10574;52.508;13.236;2024-02-16T06:49:11;9.10;99.90
20827;DHT22;10574;52.508;13.236;2024-02-16T06:51:39;9.20;99.90
20827;DHT22;10574;52.508;13.236;2024-02-16T06:54:07;9.10;99.90
20827;DHT22;10574;52.508;13.236;2024-02-16T06:56:36;9.20;99.90
20827;DHT22;10574;52.508;13.236;2024-02-16T07:01:52;9.20;99.90
20827;DHT22;10574;52.508;13.236;2024-02-16T07:04:20;9.30;99.90
20827;DHT22;10574;52.508;13.236;2024-02-16T07:06:50;9.20;99.90
20827;DHT22;10574;52.508;13.236;2024-02-16T07:09:22;9.30;99.90
20827;DHT22;10574;52.508;13.236;2024-02-16T07:11:51;9.30;99.90
20827;DHT22;10574;52.508;13.236;2024-02-16T07:14:19;9.30;99.90
20827;DHT22;10574;52.508;13.236;2024-02-16T07:16:47;9.40;99.90
20827;DHT22;10574;52.508;13.236;2024-02-16T07:19:15;9.40;99.90
20827;DHT22;10574;52.508;13.236;2024-02-16T07:21:44;9.40;99.90
20827;DHT22;10574;52.508;13.236;2024-02-16T07:24:12;9.50;99.90
20827;DHT22;10574;52.508;13.236;2024-02-16T07:26:42;9.50;99.90
20827;DHT22;10574;52.508;13.236;2024-02-16T07:29:10;9.50;99.90
20827;DHT22;10574;52.508;13.236;2024-02-16T07:31:40;9.50;99.90
20827;DHT22;10574;52.508;13.236;2024-02-16T07:34:08;9.50;99.90
20827;DHT22;10574;52.508;13.236;2024-02-16T07:36:37;9.60;99.90
20827;DHT22;10574;52.508;13.236;2024-02-16T07:39:07;9.60;99.90
20827;DHT22;10574;52.508;13.236;2024-02-16T07:41:37;9.60;99.90
20827;DHT22;10574;52.508;13.236;2024-02-16T07:44:05;9.70;99.90
20827;DHT22;10574;52.508;13.236;2024-02-16T07:46:33;9.80;99.90
20827;DHT22;10574;52.508;13.236;2024-02-16T07:49:02;9.90;99.90
20827;DHT22;10574;52.508;13.236;2024-02-16T07:51:31;10.00;99.90
20827;DHT22;10574;52.508;13.236;2024-02-16T07:53:59;10.10;99.90
20827;DHT22;10574;52.508;13.236;2024-02-16T07:56:28;10.20;99.90
20827;DHT22;10574;52.508;13.236;2024-02-16T07:58:57;10.30;99.90
20827;DHT22;10574;52.508;13.236;2024-02-16T08:01:25;10.40;99.90
20827;DHT22;10574;52.508;13.236;2024-02-16T08:03:53;10.50;99.90
20827;DHT22;10574;52.508;13.236;2024-02-16T08:06:25;10.50;99.90
20827;DHT22;10574;52.508;13.236;2024-02-16T08:08:54;10.60;99.90
20827;DHT22;10574;52.508;13.236;2024-02-16T08:11:25;10.70;99.90
20827;DHT22;10574;52.508;13.236;2024-02-16T08:13:54;10.70;99.90
20827;DHT22;10574;52.508;13.236;2024-02-16T08:16:23;10.70;99.90
20827;DHT22;10574;52.508;13.236;2024-02-16T08:18:51;10.80;99.90
20827;DHT22;10574;52.508;13.236;2024-02-16T08:21:19;10.80;99.90
20827;DHT22;10574;52.508;13.236;2024-02-16T08:23:48;10.90;99.90
20827;DHT22;10574;52.508;13.236;2024-02-16T08:26:16;11.00;99.90
20827;DHT22;10574;52.508;13.236;2024-02-16T08:28:45;11.10;99.90
20827;DHT22;10574;52.508;13.236;2024-02-16T08:31:17;11.20;99.90
20827;DHT22;10574;52.508;13.236;2024-02-16T08:33:45;11.30;99.90
20827;DHT22;10574;52.508;13.236;2024-02-16T08:36:14;11.30;99.90
20827;DHT22;10574;52.508;13.236;2024-02-16T08:38:42;11.30;99.90
20827;DHT22;10574;52.508;13.236;2024-02-16T08:41:10;11.40;99.90
20827;DHT22;10574;52.508;13.236;2024-02-16T08:43:38;11.40;99.90
20827;DHT22;10574;52.508;13.236;2024-02-16T08:46:06;11.50;99.90
20827;DHT22;10574;52.508;13.236;2024-02-16T08:48:34;11.50;99.90
20827;DHT22;10574;52.508;13.236;2024-02-16T08:51:04;11.60;99.90
20827;DHT22;10574;52.508;13.236;2024-02-16T08:53:33;11.70;99.90
20827;DHT22;10574;52.508;13.236;2024-02-16T08:56:01;11.80;99.90
20827;DHT22;10574;52.508;13.236;2024-02-16T08:58:29;11.80;99.90
20827;DHT22;10574;52.508;13.236;2024-02-16T09:00:57;11.80;99.90
20827;DHT22;10574;52.508;13.236;2024-02-16T09:03:25;11.90;99.90
20827;DHT22;10574;52.508;13.236;2024-02-16T09:05:52;11.90;99.90
20827;DHT22;10574;52.508;13.236;2024-02-16T09:08:20;11.90;99.90
20827;DHT22;10574;52.508;13.236;2024-02-16T09:10:48;11.90;99.90
20827;DHT22;10574;52.508;13.236;2024-02-16T09:13:17;12.00;99.90
20827;DHT22;10574;52.508;13.236;2024-02-16T09:15:45;12.00;99.90
20827;DHT22;10574;52.508;13.236;2024-02-16T09:18:14;12.00;99.90
20827;DHT22;10574;52.508;13.236;2024-02-16T09:20:42;12.10;99.90
20827;DHT22;10574;52.508;13.236;2024-02-16T09:23:10;12.20;99.90
20827;DHT22;10574;52.508;13.236;2024-02-16T09:25:38;12.40;99.90
20827;DHT22;10574;52.508;13.236;2024-02-16T09:28:08;12.40;99.90
20827;DHT22;10574;52.508;13.236;2024-02-16T09:30:37;12.50;99.90
20827;DHT22;10574;52.508;13.236;2024-02-16T09:33:06;12.60;99.90
20827;DHT22;10574;52.508;13.236;2024-02-16T09:35:36;12.70;99.90
20827;DHT22;10574;52.508;13.236;2024-02-16T09:38:06;12.80;99.90
20827;DHT22;10574;52.508;13.236;2024-02-16T09:40:36;12.90;99.90
20827;DHT22;10574;52.508;13.236;2024-02-16T09:43:04;12.90;99.90
20827;DHT22;10574;52.508;13.236;2024-02-16T09:45:33;13.00;99.90
20827;DHT22;10574;52.508;13.236;2024-02-16T09:48:02;12.90;99.90
20827;DHT22;10574;52.508;13.236;2024-02-16T09:50:31;13.00;99.90
20827;DHT22;10574;52.508;13.236;2024-02-16T09:53:00;13.00;99.90
20827;DHT22;10574;52.508;13.236;2024-02-16T09:55:31;13.00;99.90
20827;DHT22;10574;52.508;13.236;2024-02-16T09:58:01;13.10;99.90
20827;DHT22;10574;52.508;13.236;2024-02-16T10:00:31;13.10;99.90
20827;DHT22;10574;52.508;13.236;2024-02-16T10:02:59;13.00;99.90
20827;DHT22;10574;52.508;13.236;2024-02-16T10:05:27;13.10;99.90
20827;DHT22;10574;52.508;13.236;2024-02-16T10:07:56;13.10;99.90
20827;DHT22;10574;52.508;13.236;2024-02-16T10:10:26;13.20;99.90
20827;DHT22;10574;52.508;13.236;2024-02-16T10:13:03;13.20;99.90
20827;DHT22;10574;52.508;13.236;2024-02-16T10:15:33;13.10;99.90
20827;DHT22;10574;52.508;13.236;2024-02-16T10:18:05;13.20;99.90
20827;DHT22;10574;52.508;13.236;2024-02-16T10:20:34;13.20;99.90
20827;DHT22;10574;52.508;13.236;2024-02-16T10:23:07;13.30;99.90
20827;DHT22;10574;52.508;13.236;2024-02-16T10:25:37;13.30;99.90
20827;DHT22;10574;52.508;13.236;2024-02-16T10:28:09;13.40;99.90
20827;DHT22;10574;52.508;13.236;2024-02-16T10:30:36;13.50;99.90
20827;DHT22;10574;52.508;13.236;2024-02-16T10:33:06;13.50;99.90
20827;DHT22;10574;52.508;13.236;2024-02-16T10:35:35;13.50;99.90
20827;DHT22;10574;52.508;13.236;2024-02-16T10:38:07;13.60;99.90
20827;DHT22;10574;52.508;13.236;2024-02-16T10:40:41;13.60;99.90
20827;DHT22;10574;52.508;13.236;2024-02-16T10:43:09;13.50;99.90
20827;DHT22;10574;52.508;13.236;2024-02-16T10:45:39;13.50;99.90
20827;DHT22;10574;52.508;13.236;2024-02-16T10:48:07;13.50;99.90
20827;DHT22;10574;52.508;13.236;2024-02-16T10:50:36;13.40;99.90
20827;DHT22;10574;52.508;13.236;2024-02-16T10:53:27;13.40;99.90
20827;DHT22;10574;52.508;13.236;2024-02-16T10:56:00;13.40;99.90
20827;DHT22;10574;52.508;13.236;2024-02-16T10:58:29;13.40;99.90
20827;DHT22;10574;52.508;13.236;2024-02-16T11:00:57;13.40;99.90
20827;DHT22;10574;52.508;13.236;2024-02-16T11:03:26;13.40;99.90
20827;DHT22;10574;52.508;13.236;2024-02-16T11:05:54;13.50;99.90
20827;DHT22;10574;52.508;13.236;2024-02-16T11:08:25;13.60;99.90
20827;DHT22;10574;52.508;13.236;2024-02-16T11:11:00;13.60;99.90
20827;DHT22;10574;52.508;13.236;2024-02-16T11:13:34;13.70;99.90
20827;DHT22;10574;52.508;13.236;2024-02-16T11:16:08;13.70;99.90
20827;DHT22;10574;52.508;13.236;2024-02-16T11:18:42;13.70;99.90
20827;DHT22;10574;52.508;13.236;2024-02-16T11:21:16;13.80;99.90
20827;DHT22;10574;52.508;13.236;2024-02-16T11:23:45;13.90;99.90
20827;DHT22;10574;52.508;13.236;2024-02-16T11:26:13;14.00;99.90
20827;DHT22;10574;52.508;13.236;2024-02-16T11:28:42;14.10;99.90
20827;DHT22;10574;52.508;13.236;2024-02-16T11:31:10;14.40;99.90
20827;DHT22;10574;52.508;13.236;2024-02-16T11:33:43;14.50;99.90
20827;DHT22;10574;52.508;13.236;2024-02-16T11:36:13;14.50;99.90
20827;DHT22;10574;52.508;13.236;2024-02-16T11:38:41;14.60;99.90
20827;DHT22;10574;52.508;13.236;2024-02-16T11:41:10;14.80;99.90
20827;DHT22;10574;52.508;13.236;2024-02-16T11:43:38;15.10;99.90
20827;DHT22;10574;52.508;13.236;2024-02-16T11:46:13;15.20;99.90
20827;DHT22;10574;52.508;13.236;2024-02-16T11:48:41;15.20;99.90
20827;DHT22;10574;52.508;13.236;2024-02-16T11:51:09;15.30;99.90
20827;DHT22;10574;52.508;13.236;2024-02-16T11:53:37;15.40;99.90
20827;DHT22;10574;52.508;13.236;2024-02-16T11:56:06;15.50;99.90
20827;DHT22;10574;52.508;13.236;2024-02-16T11:58:34;15.50;99.90
20827;DHT22;10574;52.508;13.236;2024-02-16T12:01:03;15.70;99.90
20827;DHT22;10574;52.508;13.236;2024-02-16T12:03:33;15.70;99.90
20827;DHT22;10574;52.508;13.236;2024-02-16T12:06:00;15.70;99.90
20827;DHT22;10574;52.508;13.236;2024-02-16T12:08:33;15.70;99.90
20827;DHT22;10574;52.508;13.236;2024-02-16T12:11:02;15.80;99.90
20827;DHT22;10574;52.508;13.236;2024-02-16T12:13:30;15.70;99.90
20827;DHT22;10574;52.508;13.236;2024-02-16T12:15:58;15.70;99.90
20827;DHT22;10574;52.508;13.236;2024-02-16T12:18:26;15.80;99.90
20827;DHT22;10574;52.508;13.236;2024-02-16T12:21:05;15.70;99.90
20827;DHT22;10574;52.508;13.236;2024-02-16T12:23:33;15.80;99.90
20827;DHT22;10574;52.508;13.236;2024-02-16T12:26:02;15.90;99.90
20827;DHT22;10574;52.508;13.236;2024-02-16T12:28:31;16.00;99.90
20827;DHT22;10574;52.508;13.236;2024-02-16T12:30:59;15.90;99.90
20827;DHT22;10574;52.508;13.236;2024-02-16T12:33:27;16.10;99.90
20827;DHT22;10574;52.508;13.236;2024-02-16T12:35:55;16.10;99.90
20827;DHT22;10574;52.508;13.236;2024-02-16T12:38:23;16.00;99.90
20827;DHT22;10574;52.508;13.236;2024-02-16T12:40:50;16.10;99.90
20827;DHT22;10574;52.508;13.236;2024-02-16T12:43:18;16.10;99.90
20827;DHT22;10574;52.508;13.236;2024-02-16T12:45:46;16.10;99.90
20827;DHT22;10574;52.508;13.236;2024-02-16T12:48:14;16.10;99.90
20827;DHT22;10574;52.508;13.236;2024-02-16T12:50:42;16.20;99.90
20827;DHT22;10574;52.508;13.236;2024-02-16T12:53:10;16.20;99.90
20827;DHT22;10574;52.508;13.236;2024-02-16T12:55:38;16.20;99.90
20827;DHT22;10574;52.508;13.236;2024-02-16T12:58:06;16.10;99.90
20827;DHT22;10574;52.508;13.236;2024-02-16T13:00:34;16.10;99.90
20827;DHT22;10574;52.508;13.236;2024-02-16T13:03:02;16.10;99.90
20827;DHT22;10574;52.508;13.236;2024-02-16T13:05:31;16.00;99.90
20827;DHT22;10574;52.508;13.236;2024-02-16T13:07:59;16.00;99.90
20827;DHT22;10574;52.508;13.236;2024-02-16T13:10:27;16.00;99.90
20827;DHT22;10574;52.508;13.236;2024-02-16T13:12:55;16.00;99.90
20827;DHT22;10574;52.508;13.236;2024-02-16T13:15:23;16.00;99.90
20827;DHT22;10574;52.508;13.236;2024-02-16T13:17:51;15.80;99.90
20827;DHT22;10574;52.508;13.236;2024-02-16T13:20:19;15.90;99.90
20827;DHT22;10574;52.508;13.236;2024-02-16T13:22:47;15.90;99.90
20827;DHT22;10574;52.508;13.236;2024-02-16T13:25:15;15.90;99.90
20827;DHT22;10574;52.508;13.236;2024-02-16T13:27:43;15.90;99.90
20827;DHT22;10574;52.508;13.236;2024-02-16T13:30:11;15.90;99.90
20827;DHT22;10574;52.508;13.236;2024-02-16T13:32:39;15.90;99.90
20827;DHT22;10574;52.508;13.236;2024-02-16T13:35:07;15.90;99.90
20827;DHT22;10574;52.508;13.236;2024-02-16T13:37:35;15.90;99.90
20827;DHT22;10574;52.508;13.236;2024-02-16T13:40:04;15.90;99.90
20827;DHT22;10574;52.508;13.236;2024-02-16T13:42:33;15.90;99.90
20827;DHT22;10574;52.508;13.236;2024-02-16T13:45:01;15.90;99.90
20827;DHT22;10574;52.508;13.236;2024-02-16T13:47:29;15.90;99.90
20827;DHT22;10574;52.508;13.236;2024-02-16T13:49:57;16.00;99.90
20827;DHT22;10574;52.508;13.236;2024-02-16T13:52:27;16.00;99.90
20827;DHT22;10574;52.508;13.236;2024-02-16T13:54:55;16.00;99.90
20827;DHT22;10574;52.508;13.236;2024-02-16T13:57:23;15.90;99.90
20827;DHT22;10574;52.508;13.236;2024-02-16T13:59:51;15.90;99.90
20827;DHT22;10574;52.508;13.236;2024-02-16T14:02:20;15.80;99.90
20827;DHT22;10574;52.508;13.236;2024-02-16T14:04:49;15.80;99.90
20827;DHT22;10574;52.508;13.236;2024-02-16T14:07:18;15.80;99.90
20827;DHT22;10574;52.508;13.236;2024-02-16T14:09:45;15.90;99.90
20827;DHT22;10574;52.508;13.236;2024-02-16T14:12:13;15.80;99.90
20827;DHT22;10574;52.508;13.236;2024-02-16T14:14:42;15.80;99.90
20827;DHT22;10574;52.508;13.236;2024-02-16T14:17:10;15.80;99.90
20827;DHT22;10574;52.508;13.236;2024-02-16T14:19:38;15.80;99.90
20827;DHT22;10574;52.508;13.236;2024-02-16T14:22:06;15.70;99.90
20827;DHT22;10574;52.508;13.236;2024-02-16T14:24:34;15.70;99.90
20827;DHT22;10574;52.508;13.236;2024-02-16T14:27:02;15.70;99.90
20827;DHT22;10574;52.508;13.236;2024-02-16T14:29:29;15.60;99.90
20827;DHT22;10574;52.508;13.236;2024-02-16T14:31:57;15.50;99.90
20827;DHT22;10574;52.508;13.236;2024-02-16T14:34:26;15.50;99.90
20827;DHT22;10574;52.508;13.236;2024-02-16T14:36:54;15.60;99.90
20827;DHT22;10574;52.508;13.236;2024-02-16T14:39:22;15.60;99.90
20827;DHT22;10574;52.508;13.236;2024-02-16T14:41:51;15.60;99.90
20827;DHT22;10574;52.508;13.236;2024-02-16T14:44:20;15.60;99.90
20827;DHT22;10574;52.508;13.236;2024-02-16T14:46:47;15.60;99.90
20827;DHT22;10574;52.508;13.236;2024-02-16T14:49:16;15.60;99.90
20827;DHT22;10574;52.508;13.236;2024-02-16T14:51:46;15.60;99.90
20827;DHT22;10574;52.508;13.236;2024-02-16T14:54:14;15.60;99.90
20827;DHT22;10574;52.508;13.236;2024-02-16T14:56:42;15.60;99.90
20827;DHT22;10574;52.508;13.236;2024-02-16T14:59:10;15.60;99.90
20827;DHT22;10574;52.508;13.236;2024-02-16T15:01:38;15.50;99.90
20827;DHT22;10574;52.508;13.236;2024-02-16T15:04:06;15.50;99.90
20827;DHT22;10574;52.508;13.236;2024-02-16T15:06:35;15.50;99.90
20827;DHT22;10574;52.508;13.236;2024-02-16T15:09:04;15.40;99.90
20827;DHT22;10574;52.508;13.236;2024-02-16T15:11:33;15.40;99.90
20827;DHT22;10574;52.508;13.236;2024-02-16T15:14:01;15.40;99.90
20827;DHT22;10574;52.508;13.236;2024-02-16T15:16:29;15.40;99.90
20827;DHT22;10574;52.508;13.236;2024-02-16T15:18:58;15.30;99.90
20827;DHT22;10574;52.508;13.236;2024-02-16T15:21:27;15.30;99.90
20827;DHT22;10574;52.508;13.236;2024-02-16T15:23:56;15.30;99.90
20827;DHT22;10574;52.508;13.236;2024-02-16T15:26:25;15.30;99.90
20827;DHT22;10574;52.508;13.236;2024-02-16T15:28:53;15.30;99.90
20827;DHT22;10574;52.508;13.236;2024-02-16T15:31:21;15.20;99.90
20827;DHT22;10574;52.508;13.236;2024-02-16T15:33:51;15.20;99.90